createdAt,value
2022-09-28T00:01:17.661Z,8.40
2022-09-28T00:03:46.178Z,8.40
2022-09-28T00:06:15.810Z,8.40
2022-09-28T00:08:45.501Z,8.40
2022-09-28T00:11:16.285Z,8.40
2022-09-28T00:13:46.116Z,8.30
2022-09-28T00:16:16.844Z,8.30
2022-09-28T00:18:45.687Z,8.30
2022-09-28T00:21:16.621Z,8.30
2022-09-28T00:24:04.748Z,8.30
2022-09-28T00:26:34.824Z,8.30
2022-09-28T00:29:03.931Z,8.30
2022-09-28T00:31:33.896Z,8.30
2022-09-28T00:34:04.921Z,8.30
2022-09-28T00:36:34.020Z,8.30
2022-09-28T00:39:07.531Z,8.30
2022-09-28T00:41:36.631Z,8.30
2022-09-28T00:44:37.879Z,8.30
2022-09-28T00:47:17.011Z,8.30
2022-09-28T00:49:49.979Z,8.20
2022-09-28T00:52:22.780Z,8.30
2022-09-28T00:54:53.981Z,8.30
2022-09-28T00:57:23.445Z,8.30
2022-09-28T00:59:53.184Z,8.30
2022-09-28T01:02:22.391Z,8.30
2022-09-28T01:04:51.552Z,8.30
2022-09-28T01:07:19.885Z,8.30
2022-09-28T01:09:49.519Z,8.30
2022-09-28T01:12:18.958Z,8.20
2022-09-28T01:14:47.797Z,8.30
2022-09-28T01:17:18.439Z,8.30
2022-09-28T01:20:48.594Z,8.30
2022-09-28T01:23:55.046Z,8.30
2022-09-28T01:26:56.700Z,8.30
2022-09-28T01:29:37.624Z,8.30
2022-09-28T01:32:21.885Z,8.30
2022-09-28T01:34:58.620Z,8.20
2022-09-28T01:37:32.380Z,8.20
2022-09-28T01:40:04.952Z,8.20
2022-09-28T01:42:37.089Z,8.20
2022-09-28T01:45:10.580Z,8.10
2022-09-28T01:47:41.017Z,8.00
2022-09-28T01:50:13.958Z,7.90
2022-09-28T01:52:48.264Z,7.80
2022-09-28T01:55:22.110Z,7.70
2022-09-28T01:57:56.459Z,7.70
2022-09-28T02:00:26.244Z,7.60
2022-09-28T02:02:58.378Z,7.60
2022-09-28T02:05:32.140Z,7.50
2022-09-28T02:08:06.757Z,7.30
2022-09-28T02:10:40.434Z,7.30
2022-09-28T02:13:14.550Z,7.20
2022-09-28T02:15:51.121Z,7.20
2022-09-28T02:18:19.683Z,7.10
2022-09-28T02:21:05.231Z,7.10
2022-09-28T02:23:36.757Z,7.00
2022-09-28T02:26:09.189Z,7.10
2022-09-28T02:28:38.563Z,7.00
2022-09-28T02:31:07.153Z,7.10
2022-09-28T02:33:38.317Z,7.10
2022-09-28T02:36:07.253Z,7.10
2022-09-28T02:38:35.432Z,7.20
2022-09-28T02:41:06.622Z,7.20
2022-09-28T02:43:46.253Z,7.30
2022-09-28T02:46:21.786Z,7.40
2022-09-28T02:49:21.052Z,7.50
2022-09-28T02:52:00.790Z,7.50
2022-09-28T02:54:48.669Z,7.60
2022-09-28T02:57:31.112Z,7.70
2022-09-28T03:08:42.124Z,7.90
2022-09-28T03:11:14.914Z,7.80
2022-09-28T03:13:43.649Z,7.90
2022-09-28T03:16:15.963Z,7.90
2022-09-28T03:18:44.931Z,7.90
2022-09-28T03:21:14.305Z,8.00
2022-09-28T03:23:43.214Z,8.00
2022-09-28T03:26:12.695Z,8.00
2022-09-28T03:28:41.261Z,8.00
2022-09-28T03:31:09.393Z,8.00
2022-09-28T03:33:38.833Z,8.00
2022-09-28T03:36:08.747Z,8.00
2022-09-28T03:38:36.798Z,8.00
2022-09-28T03:41:05.289Z,8.00
2022-09-28T03:43:33.359Z,8.00
2022-09-28T03:46:02.971Z,8.00
2022-09-28T03:48:33.212Z,8.00
2022-09-28T03:51:05.514Z,8.00
2022-09-28T03:53:34.704Z,8.00
2022-09-28T03:56:06.650Z,8.10
2022-09-28T03:58:34.770Z,8.10
2022-09-28T04:01:04.347Z,8.10
2022-09-28T04:03:32.865Z,8.10
2022-09-28T04:06:02.728Z,8.10
2022-09-28T04:08:31.033Z,8.10
2022-09-28T04:10:59.323Z,8.10
2022-09-28T04:13:29.491Z,8.10
2022-09-28T04:15:58.970Z,8.10
2022-09-28T04:18:27.522Z,8.10
2022-09-28T04:21:06.757Z,8.10
2022-09-28T04:23:35.738Z,8.10
2022-09-28T04:26:04.124Z,8.00
2022-09-28T04:28:49.533Z,8.00
2022-09-28T04:31:19.745Z,7.90
2022-09-28T04:33:48.067Z,7.80
2022-09-28T04:36:19.727Z,7.70
2022-09-28T04:38:53.097Z,7.60
2022-09-28T04:41:22.861Z,7.60
2022-09-28T04:43:51.408Z,7.40
2022-09-28T04:46:20.205Z,7.20
2022-09-28T04:48:48.338Z,7.10
2022-09-28T04:51:17.775Z,7.00
2022-09-28T04:53:45.782Z,7.00
2022-09-28T04:56:15.386Z,6.90
2022-09-28T04:58:45.281Z,6.80
2022-09-28T05:01:17.207Z,6.90
2022-09-28T05:03:46.044Z,6.90
2022-09-28T05:06:15.861Z,6.80
2022-09-28T05:08:46.938Z,6.80
2022-09-28T05:11:15.898Z,6.70
2022-09-28T05:13:46.221Z,6.70
2022-09-28T05:16:16.193Z,6.60
2022-09-28T05:18:44.497Z,6.60
2022-09-28T05:21:13.792Z,6.60
2022-09-28T05:23:42.302Z,6.60
2022-09-28T05:26:11.822Z,6.60
2022-09-28T05:28:39.880Z,6.50
2022-09-28T05:31:07.953Z,6.50
2022-09-28T05:33:36.404Z,6.50
2022-09-28T05:36:05.138Z,6.50
2022-09-28T05:38:33.271Z,6.50
2022-09-28T05:41:06.291Z,6.50
2022-09-28T05:43:36.371Z,6.50
2022-09-28T05:46:04.616Z,6.50
2022-09-28T05:48:32.718Z,6.50
2022-09-28T05:51:00.716Z,6.50
2022-09-28T05:53:28.806Z,6.50
2022-09-28T05:55:59.347Z,6.50
2022-09-28T05:58:28.461Z,6.50
2022-09-28T06:00:58.462Z,6.50
2022-09-28T06:03:27.056Z,6.60
2022-09-28T06:05:55.212Z,6.70
2022-09-28T06:08:23.422Z,6.80
2022-09-28T06:10:51.486Z,6.90
2022-09-28T06:13:20.014Z,6.90
2022-09-28T06:15:48.167Z,7.00
2022-09-28T06:18:17.613Z,7.00
2022-09-28T06:20:45.891Z,7.00
2022-09-28T06:23:15.028Z,7.00
2022-09-28T06:25:43.293Z,7.10
2022-09-28T06:28:13.654Z,7.20
2022-09-28T06:30:42.801Z,7.30
2022-09-28T06:33:14.510Z,7.70
2022-09-28T06:35:44.080Z,8.70
2022-09-28T06:38:12.517Z,10.40
2022-09-28T06:40:40.615Z,11.60
2022-09-28T06:43:11.751Z,12.30
2022-09-28T06:45:43.011Z,13.20
2022-09-28T06:48:12.242Z,14.10
2022-09-28T06:50:43.657Z,15.50
2022-09-28T06:53:14.649Z,16.50
2022-09-28T06:55:43.997Z,17.20
2022-09-28T06:58:14.068Z,17.70
2022-09-28T07:00:43.007Z,18.20
2022-09-28T07:03:13.984Z,18.90
2022-09-28T07:05:45.886Z,19.00
2022-09-28T07:08:14.360Z,19.40
2022-09-28T07:10:44.850Z,19.90
2022-09-28T07:13:40.566Z,20.30
2022-09-28T07:16:02.927Z,20.40
2022-09-28T07:18:31.051Z,20.90
2022-09-28T07:21:02.838Z,21.20
2022-09-28T07:23:31.457Z,21.20
2022-09-28T07:26:05.310Z,20.30
2022-09-28T07:28:34.680Z,19.40
2022-09-28T07:31:03.701Z,19.30
2022-09-28T07:33:32.651Z,18.00
2022-09-28T07:36:06.537Z,17.30
2022-09-28T07:38:34.882Z,16.80
2022-09-28T07:41:14.937Z,15.80
2022-09-28T07:43:43.149Z,15.80
2022-09-28T07:46:12.952Z,16.40
2022-09-28T07:48:42.888Z,16.20
2022-09-28T07:51:12.587Z,16.10
2022-09-28T07:53:40.746Z,16.30
2022-09-28T07:56:09.846Z,16.80
2022-09-28T07:58:39.298Z,17.60
2022-09-28T08:01:10.410Z,18.80
2022-09-28T08:03:39.644Z,19.50
2022-09-28T08:06:12.522Z,19.70
2022-09-28T08:08:43.877Z,19.80
2022-09-28T08:11:12.966Z,19.60
2022-09-28T08:13:41.233Z,19.70
2022-09-28T08:16:09.416Z,19.30
2022-09-28T08:18:37.719Z,18.60
2022-09-28T08:21:24.830Z,17.80
2022-09-28T08:23:54.369Z,16.60
2022-09-28T08:26:22.489Z,15.30
2022-09-28T08:28:51.243Z,14.50
2022-09-28T08:31:19.337Z,14.00
2022-09-28T08:33:48.587Z,13.70
2022-09-28T08:36:16.597Z,14.30
2022-09-28T08:38:44.622Z,15.70
2022-09-28T08:41:25.135Z,17.40
2022-09-28T08:44:04.671Z,18.60
2022-09-28T08:46:37.597Z,19.40
2022-09-28T08:49:26.310Z,18.90
2022-09-28T08:52:00.569Z,17.40
2022-09-28T08:54:36.260Z,16.70
2022-09-28T08:57:10.462Z,17.20
2022-09-28T08:59:46.766Z,17.30
2022-09-28T09:02:20.086Z,16.90
2022-09-28T09:04:48.647Z,16.10
2022-09-28T09:07:46.963Z,15.60
2022-09-28T09:10:38.483Z,15.30
2022-09-28T09:13:18.731Z,14.90
2022-09-28T09:15:55.220Z,15.00
2022-09-28T09:18:32.694Z,16.30
2022-09-28T09:21:08.661Z,17.40
2022-09-28T09:23:39.482Z,18.20
2022-09-28T09:26:19.453Z,18.20
2022-09-28T09:29:18.039Z,17.60
2022-09-28T09:32:04.428Z,17.10
2022-09-28T09:34:49.315Z,17.40
2022-09-28T09:37:30.734Z,17.70
2022-09-28T09:40:16.250Z,17.50
2022-09-28T09:42:56.036Z,16.80
2022-09-28T09:45:42.668Z,15.80
2022-09-28T09:48:16.345Z,15.60
2022-09-28T09:50:50.783Z,15.60
2022-09-28T09:53:25.281Z,16.70
2022-09-28T09:55:57.343Z,18.00
2022-09-28T09:58:29.799Z,18.50
2022-09-28T10:01:06.573Z,19.00
2022-09-28T10:03:37.921Z,19.60
2022-09-28T10:06:09.476Z,19.20
2022-09-28T10:08:42.940Z,18.30
2022-09-28T10:11:13.910Z,17.50
2022-09-28T10:13:42.851Z,17.20
2022-09-28T10:16:12.415Z,16.70
2022-09-28T10:18:40.560Z,16.30
2022-09-28T10:21:12.755Z,15.50
2022-09-28T10:23:42.052Z,15.30
2022-09-28T10:26:18.712Z,15.30
2022-09-28T10:28:53.065Z,15.30
2022-09-28T10:31:40.441Z,15.00
2022-09-28T10:34:14.001Z,14.70
2022-09-28T10:36:49.673Z,14.70
2022-09-28T10:39:34.037Z,14.80
2022-09-28T10:42:04.586Z,14.90
2022-09-28T10:44:35.706Z,15.30
2022-09-28T10:47:09.905Z,15.70
2022-09-28T10:49:46.848Z,16.00
2022-09-28T10:52:38.563Z,16.40
2022-09-28T10:55:29.062Z,16.40
2022-09-28T10:57:57.414Z,16.50
2022-09-28T11:00:34.818Z,16.50
2022-09-28T11:03:04.834Z,16.10
2022-09-28T11:05:33.316Z,15.90
2022-09-28T11:08:08.049Z,15.70
2022-09-28T11:10:36.198Z,15.70
2022-09-28T11:13:04.363Z,15.70
2022-09-28T11:15:34.095Z,15.70
2022-09-28T11:18:22.466Z,15.70
2022-09-28T11:20:50.487Z,15.60
2022-09-28T11:23:22.504Z,15.50
2022-09-28T11:26:08.945Z,15.10
2022-09-28T11:32:31.834Z,15.20
2022-09-28T11:35:01.742Z,15.50
2022-09-28T11:37:41.441Z,15.70
2022-09-28T11:40:25.065Z,15.80
2022-09-28T11:43:03.722Z,15.70
2022-09-28T11:45:48.521Z,15.40
2022-09-28T11:48:20.058Z,15.40
2022-09-28T11:50:52.722Z,15.40
2022-09-28T11:53:27.562Z,15.50
2022-09-28T11:56:03.298Z,15.70
2022-09-28T11:58:38.833Z,15.80
2022-09-28T12:01:19.069Z,16.10
2022-09-28T12:03:53.389Z,16.20
2022-09-28T12:06:29.476Z,16.60
2022-09-28T12:09:09.368Z,16.80
2022-09-28T12:11:43.913Z,16.90
2022-09-28T12:14:19.871Z,17.20
2022-09-28T12:17:05.933Z,17.10
2022-09-28T12:19:39.917Z,16.80
2022-09-28T12:22:24.994Z,16.60
2022-09-28T12:24:56.692Z,16.20
2022-09-28T12:27:32.310Z,16.00
2022-09-28T12:30:06.478Z,16.00
2022-09-28T12:32:40.494Z,15.80
2022-09-28T12:35:14.107Z,15.70
2022-09-28T12:38:15.845Z,15.60
2022-09-28T12:40:53.809Z,15.70
2022-09-28T12:43:45.508Z,15.70
2022-09-28T12:46:37.244Z,15.70
2022-09-28T12:52:29.052Z,16.10
2022-09-28T12:55:12.885Z,16.10
2022-09-28T12:57:49.965Z,16.10
2022-09-28T13:00:22.305Z,16.10
2022-09-28T13:03:20.529Z,15.90
2022-09-28T13:06:13.329Z,15.70
2022-09-28T13:08:55.352Z,15.80
2022-09-28T13:11:34.206Z,15.60
2022-09-28T13:14:23.799Z,15.60
2022-09-28T13:17:00.604Z,15.40
2022-09-28T13:19:37.933Z,15.40
2022-09-28T13:22:18.994Z,15.40
2022-09-28T13:24:48.457Z,15.20
2022-09-28T13:27:23.433Z,15.20
2022-09-28T13:29:55.674Z,15.20
2022-09-28T13:32:26.930Z,15.30
2022-09-28T13:34:55.359Z,15.50
2022-09-28T13:37:26.197Z,15.80
2022-09-28T13:39:56.538Z,16.10
2022-09-28T13:42:47.426Z,16.50
2022-09-28T13:45:51.679Z,16.80
2022-09-28T13:48:23.164Z,16.90
2022-09-28T13:51:17.367Z,16.90
2022-09-28T13:54:12.762Z,16.80
2022-09-28T14:04:18.596Z,16.20
2022-09-28T14:06:55.481Z,16.00
2022-09-28T14:09:28.726Z,15.80
2022-09-28T14:11:59.233Z,15.50
2022-09-28T14:14:30.300Z,15.20
2022-09-28T14:17:45.335Z,14.80
2022-09-28T14:20:18.740Z,14.40
2022-09-28T14:23:10.235Z,14.20
2022-09-28T14:25:44.550Z,13.90
2022-09-28T14:28:34.025Z,13.60
2022-09-28T14:31:10.719Z,13.40
2022-09-28T14:33:42.796Z,13.20
2022-09-28T14:36:46.405Z,13.00
2022-09-28T14:39:40.371Z,12.70
2022-09-28T14:42:15.704Z,12.40
2022-09-28T14:45:21.255Z,12.10
2022-09-28T14:48:19.080Z,11.90
2022-09-28T14:50:48.863Z,11.80
2022-09-28T14:53:23.924Z,11.70
2022-09-28T14:55:55.889Z,11.50
2022-09-28T14:58:26.664Z,11.40
2022-09-28T15:01:03.695Z,11.30
2022-09-28T15:03:34.583Z,11.20
2022-09-28T15:06:02.820Z,11.20
2022-09-28T15:20:26.066Z,11.10
2022-09-28T15:22:57.584Z,11.10
2022-09-28T15:25:27.942Z,11.00
2022-09-28T15:27:57.600Z,11.00
2022-09-28T15:30:29.274Z,10.90
2022-09-28T15:33:18.866Z,10.90
2022-09-28T15:35:51.896Z,10.90
2022-09-28T15:38:20.021Z,11.00
2022-09-28T15:40:51.088Z,11.00
2022-09-28T15:43:27.011Z,11.10
2022-09-28T15:53:43.069Z,11.30
2022-09-28T16:07:38.574Z,11.60
2022-09-28T16:10:30.903Z,11.70
2022-09-28T16:13:09.587Z,11.70
2022-09-28T16:15:42.354Z,11.80
2022-09-28T16:18:20.143Z,11.80
2022-09-28T16:20:50.878Z,11.80
2022-09-28T16:23:27.970Z,11.80
2022-09-28T16:26:05.166Z,11.80
2022-09-28T16:28:52.034Z,11.70
2022-09-28T16:31:33.655Z,11.70
2022-09-28T16:34:11.732Z,11.60
2022-09-28T16:36:45.528Z,11.60
2022-09-28T16:39:14.312Z,11.60
2022-09-28T16:41:47.880Z,11.50
2022-09-28T16:44:23.441Z,11.50
2022-09-28T16:46:55.904Z,11.40
2022-09-28T16:49:25.669Z,11.40
2022-09-28T16:51:54.459Z,11.40
2022-09-28T16:54:42.373Z,11.30
2022-09-28T16:57:14.337Z,11.30
2022-09-28T16:59:42.677Z,11.20
2022-09-28T17:02:42.205Z,11.20
2022-09-28T17:05:07.496Z,11.10
2022-09-28T17:07:35.923Z,11.00
2022-09-28T17:10:04.216Z,10.90
2022-09-28T17:12:33.697Z,10.80
2022-09-28T17:15:01.806Z,10.80
2022-09-28T17:17:31.370Z,10.80
2022-09-28T17:20:01.912Z,10.70
2022-09-28T17:22:30.024Z,10.70
2022-09-28T17:25:00.498Z,10.70
2022-09-28T17:27:28.565Z,10.60
2022-09-28T17:29:58.008Z,10.60
2022-09-28T17:32:26.067Z,10.60
2022-09-28T17:35:06.556Z,10.50
2022-09-28T17:37:43.381Z,10.40
2022-09-28T17:40:21.319Z,10.40
2022-09-28T17:42:49.845Z,10.30
2022-09-28T17:45:20.589Z,10.30
2022-09-28T17:47:51.447Z,10.20
2022-09-28T17:50:22.300Z,10.20
2022-09-28T17:52:53.856Z,10.20
2022-09-28T17:55:28.573Z,10.20
2022-09-28T17:57:57.645Z,10.10
2022-09-28T18:00:27.869Z,10.00
2022-09-28T18:02:56.007Z,10.00
2022-09-28T18:05:25.333Z,9.90
2022-09-28T18:07:53.841Z,10.00
2022-09-28T18:10:23.710Z,10.00
2022-09-28T18:12:52.367Z,10.00
2022-09-28T18:15:20.985Z,10.00
2022-09-28T18:17:50.415Z,10.00
2022-09-28T18:20:18.563Z,10.10
2022-09-28T18:22:46.717Z,10.10
2022-09-28T18:25:14.845Z,10.10
2022-09-28T18:27:43.177Z,10.10
2022-09-28T18:30:11.905Z,10.10
2022-09-28T18:32:39.994Z,10.10
2022-09-28T18:35:11.270Z,10.00
2022-09-28T18:37:39.962Z,10.00
2022-09-28T18:40:09.639Z,9.90
2022-09-28T18:42:37.765Z,9.80
2022-09-28T18:45:08.000Z,9.80
2022-09-28T18:47:36.234Z,9.70
2022-09-28T18:50:04.862Z,9.60
2022-09-28T18:52:37.046Z,9.60
2022-09-28T18:55:05.727Z,9.50
2022-09-28T18:57:34.305Z,9.40
2022-09-28T19:00:03.299Z,9.40
2022-09-28T19:02:31.433Z,9.30
2022-09-28T19:04:59.602Z,9.30
2022-09-28T19:07:27.765Z,9.20
2022-09-28T19:09:57.206Z,9.10
2022-09-28T19:12:25.377Z,9.10
2022-09-28T19:14:53.427Z,9.10
2022-09-28T19:17:21.502Z,9.10
2022-09-28T19:19:51.649Z,9.10
2022-09-28T19:22:19.746Z,9.10
2022-09-28T19:24:47.947Z,9.10
2022-09-28T19:27:18.439Z,9.10
2022-09-28T19:29:46.519Z,9.00
2022-09-28T19:32:16.651Z,9.00
2022-09-28T19:34:44.827Z,8.90
2022-09-28T19:37:12.910Z,8.90
2022-09-28T19:39:41.095Z,8.80
2022-09-28T19:42:09.136Z,8.80
2022-09-28T19:44:39.647Z,8.80
2022-09-28T19:47:10.154Z,8.70
2022-09-28T19:49:40.175Z,8.60
2022-09-28T19:52:15.803Z,8.60
2022-09-28T19:54:46.116Z,8.60
2022-09-28T19:57:16.075Z,8.60
2022-09-28T19:59:48.485Z,8.50
2022-09-28T20:02:18.916Z,8.50
2022-09-28T20:04:47.084Z,8.50
2022-09-28T20:07:15.247Z,8.50
2022-09-28T20:09:43.464Z,8.50
2022-09-28T20:12:11.528Z,8.50
2022-09-28T20:14:40.498Z,8.50
2022-09-28T20:17:10.718Z,8.50
2022-09-28T20:19:39.196Z,8.40
2022-09-28T20:22:07.389Z,8.50
2022-09-28T20:24:35.489Z,8.40
2022-09-28T20:27:03.674Z,8.40
2022-09-28T20:29:33.517Z,8.40
2022-09-28T20:32:03.937Z,8.30
2022-09-28T20:34:34.345Z,8.30
2022-09-28T20:37:02.581Z,8.20
2022-09-28T20:39:30.727Z,8.10
2022-09-28T20:41:58.788Z,8.10
2022-09-28T20:44:26.886Z,8.00
2022-09-28T20:46:56.204Z,7.90
2022-09-28T20:49:24.345Z,8.00
2022-09-28T20:51:53.781Z,8.00
2022-09-28T20:54:22.274Z,8.00
2022-09-28T20:56:50.377Z,7.90
2022-09-28T20:59:20.243Z,7.90
2022-09-28T21:01:48.440Z,7.80
2022-09-28T21:04:16.622Z,7.80
2022-09-28T21:06:51.346Z,7.80
2022-09-28T21:09:20.735Z,7.80
2022-09-28T21:11:48.893Z,7.80
2022-09-28T21:14:17.275Z,7.70
2022-09-28T21:16:45.325Z,7.70
2022-09-28T21:19:13.560Z,7.60
2022-09-28T21:21:41.728Z,7.60
2022-09-28T21:24:10.013Z,7.70
2022-09-28T21:30:20.088Z,7.60
2022-09-28T21:32:50.192Z,7.60
2022-09-28T21:35:18.228Z,7.60
2022-09-28T21:37:46.615Z,7.60
2022-09-28T21:40:14.791Z,7.60
2022-09-28T21:42:43.147Z,7.60
2022-09-28T21:45:11.421Z,7.50
2022-09-28T21:47:43.586Z,7.50
2022-09-28T21:50:11.661Z,7.50
2022-09-28T21:52:39.772Z,7.40
2022-09-28T21:55:09.012Z,7.40
2022-09-28T21:57:37.034Z,7.30
2022-09-28T22:00:05.822Z,7.30
2022-09-28T22:02:34.125Z,7.30
2022-09-28T22:05:03.511Z,7.20
2022-09-28T22:07:31.576Z,7.20
2022-09-28T22:09:59.575Z,7.30
2022-09-28T22:12:29.865Z,7.30
2022-09-28T22:14:58.033Z,7.30
2022-09-28T22:17:26.381Z,7.30
2022-09-28T22:19:54.869Z,7.30
2022-09-28T22:22:28.399Z,7.40
2022-09-28T22:24:57.215Z,7.40
2022-09-28T22:27:25.342Z,7.40
2022-09-28T22:29:53.398Z,7.30
2022-09-28T22:32:23.801Z,7.30
2022-09-28T22:34:51.853Z,7.40
2022-09-28T22:37:20.224Z,7.30
2022-09-28T22:39:49.647Z,7.30
2022-09-28T22:42:17.795Z,7.30
2022-09-28T22:44:45.910Z,7.30
2022-09-28T22:47:13.964Z,7.20
2022-09-28T22:49:42.051Z,7.20
2022-09-28T22:52:10.118Z,7.20
2022-09-28T22:54:40.536Z,7.20
2022-09-28T22:57:09.977Z,7.10
2022-09-28T22:59:38.049Z,7.10
2022-09-28T23:02:06.113Z,7.10
2022-09-28T23:04:34.199Z,7.10
2022-09-28T23:07:02.295Z,7.10
2022-09-28T23:09:30.395Z,7.20
2022-09-28T23:12:00.448Z,7.30
2022-09-28T23:14:29.909Z,7.20
2022-09-28T23:16:57.973Z,7.20
2022-09-28T23:19:26.030Z,7.20
2022-09-28T23:21:54.569Z,7.10
2022-09-28T23:24:24.383Z,7.20
2022-09-28T23:26:52.402Z,7.20
2022-09-28T23:29:20.477Z,7.30
2022-09-28T23:31:49.922Z,7.30
2022-09-28T23:34:18.263Z,7.30
2022-09-28T23:36:46.416Z,7.30
2022-09-28T23:39:14.634Z,7.30
2022-09-28T23:41:42.743Z,7.20
2022-09-28T23:44:10.831Z,7.10
2022-09-28T23:46:38.898Z,7.10
2022-09-28T23:49:08.323Z,7.00
2022-09-28T23:51:36.364Z,7.00
2022-09-28T23:54:06.688Z,6.90
2022-09-28T23:56:34.758Z,6.90
2022-09-28T23:59:02.861Z,6.90
